createdAt,value
2022-09-09T00:02:10.118Z,11.47
2022-09-09T00:04:39.957Z,9.63
2022-09-09T00:07:19.425Z,10.30
2022-09-09T00:10:13.177Z,7.90
2022-09-09T00:13:01.466Z,6.67
2022-09-09T00:16:11.655Z,4.77
2022-09-09T00:18:56.350Z,4.50
2022-09-09T00:21:39.892Z,3.90
2022-09-09T00:24:33.176Z,3.10
2022-09-09T00:27:30.961Z,2.47
2022-09-09T00:30:23.856Z,2.43
2022-09-09T00:32:59.142Z,2.43
2022-09-09T00:35:46.441Z,2.53
2022-09-09T00:38:39.441Z,2.10
2022-09-09T00:41:36.164Z,2.47
2022-09-09T00:44:37.842Z,2.27
2022-09-09T00:47:26.997Z,2.73
2022-09-09T00:50:46.913Z,2.50
2022-09-09T00:53:53.184Z,2.50
2022-09-09T00:56:34.096Z,2.43
2022-09-09T00:59:05.209Z,2.50
2022-09-09T01:01:32.807Z,2.70
2022-09-09T01:04:00.700Z,2.40
2022-09-09T01:06:39.546Z,2.30
2022-09-09T01:09:43.480Z,2.60
2022-09-09T01:12:27.968Z,2.50
2022-09-09T01:15:21.995Z,2.60
2022-09-09T01:18:09.038Z,2.67
2022-09-09T01:21:11.936Z,2.50
2022-09-09T01:24:15.689Z,2.50
2022-09-09T01:27:03.695Z,2.67
2022-09-09T01:29:31.740Z,2.27
2022-09-09T01:32:03.386Z,2.67
2022-09-09T01:34:40.438Z,2.70
2022-09-09T01:37:11.681Z,2.80
2022-09-09T01:39:44.187Z,2.27
2022-09-09T01:42:17.241Z,3.03
2022-09-09T01:44:45.671Z,5.30
2022-09-09T01:47:13.904Z,4.13
2022-09-09T01:49:56.382Z,7.10
2022-09-09T01:52:27.764Z,7.33
2022-09-09T01:54:59.063Z,5.57
2022-09-09T01:57:40.894Z,5.00
2022-09-09T02:00:13.280Z,4.87
2022-09-09T02:03:02.156Z,3.80
2022-09-09T02:05:42.640Z,5.07
2022-09-09T02:08:30.274Z,3.80
2022-09-09T02:11:14.633Z,3.47
2022-09-09T02:14:22.620Z,3.33
2022-09-09T02:17:00.571Z,3.33
2022-09-09T02:20:07.364Z,4.07
2022-09-09T02:22:46.875Z,3.43
2022-09-09T02:25:20.645Z,3.97
2022-09-09T02:27:52.568Z,3.30
2022-09-09T02:30:21.471Z,3.50
2022-09-09T02:33:00.490Z,3.53
2022-09-09T02:35:44.248Z,3.37
2022-09-09T02:38:16.686Z,2.93
2022-09-09T02:40:53.495Z,3.37
2022-09-09T02:43:21.372Z,2.43
2022-09-09T02:46:28.009Z,3.30
2022-09-09T02:49:11.006Z,2.87
2022-09-09T02:52:06.922Z,2.90
2022-09-09T02:54:40.476Z,2.60
2022-09-09T02:57:22.442Z,2.77
2022-09-09T02:59:53.065Z,2.50
2022-09-09T03:02:20.887Z,2.63
2022-09-09T03:04:54.096Z,2.33
2022-09-09T03:07:22.061Z,2.37
2022-09-09T03:09:52.054Z,2.27
2022-09-09T03:12:19.468Z,2.17
2022-09-09T03:14:47.743Z,2.27
2022-09-09T03:17:15.268Z,2.60
2022-09-09T03:19:51.190Z,2.43
2022-09-09T03:22:18.639Z,2.70
2022-09-09T03:24:47.988Z,2.40
2022-09-09T03:27:20.534Z,2.33
2022-09-09T03:29:52.064Z,2.60
2022-09-09T03:32:23.638Z,2.27
2022-09-09T03:34:51.712Z,2.20
2022-09-09T03:37:23.543Z,2.47
2022-09-09T03:39:51.982Z,2.60
2022-09-09T03:42:20.271Z,2.83
2022-09-09T03:44:51.508Z,2.80
2022-09-09T03:47:22.912Z,2.70
2022-09-09T03:49:53.043Z,3.07
2022-09-09T03:52:23.836Z,2.97
2022-09-09T03:54:53.925Z,3.47
2022-09-09T03:57:22.737Z,3.07
2022-09-09T03:59:51.049Z,3.80
2022-09-09T04:02:18.504Z,4.00
2022-09-09T04:04:46.055Z,3.43
2022-09-09T04:07:15.093Z,3.60
2022-09-09T04:09:42.641Z,3.27
2022-09-09T04:12:12.377Z,2.77
2022-09-09T04:14:39.834Z,3.00
2022-09-09T04:17:08.915Z,3.27
2022-09-09T04:19:36.579Z,3.40
2022-09-09T04:22:04.265Z,2.87
2022-09-09T04:24:31.735Z,2.77
2022-09-09T04:27:01.244Z,2.60
2022-09-09T04:29:29.139Z,2.60
2022-09-09T04:31:57.017Z,2.87
2022-09-09T04:34:24.755Z,3.20
2022-09-09T04:36:53.708Z,2.90
2022-09-09T04:39:23.376Z,3.20
2022-09-09T04:41:52.543Z,2.60
2022-09-09T04:44:19.962Z,2.73
2022-09-09T04:46:48.336Z,2.90
2022-09-09T04:49:16.145Z,3.40
2022-09-09T04:51:44.552Z,2.80
2022-09-09T04:54:12.748Z,3.37
2022-09-09T04:56:43.493Z,7.53
2022-09-09T04:59:11.986Z,8.53
2022-09-09T05:01:46.661Z,6.13
2022-09-09T05:04:16.288Z,5.87
2022-09-09T05:06:47.150Z,5.67
2022-09-09T05:09:15.004Z,5.47
2022-09-09T05:11:42.924Z,5.77
2022-09-09T05:14:26.155Z,3.63
2022-09-09T05:16:54.732Z,3.10
2022-09-09T05:19:23.847Z,4.57
2022-09-09T05:21:53.087Z,3.83
2022-09-09T05:24:25.495Z,3.57
2022-09-09T05:27:00.913Z,3.73
2022-09-09T05:29:29.278Z,3.60
2022-09-09T05:31:57.852Z,3.13
2022-09-09T05:34:25.721Z,7.73
2022-09-09T05:36:54.730Z,9.67
2022-09-09T05:39:23.867Z,8.70
2022-09-09T05:41:52.259Z,2.97
2022-09-09T05:44:20.404Z,3.37
2022-09-09T05:46:48.592Z,5.30
2022-09-09T05:49:16.710Z,5.60
2022-09-09T05:51:44.942Z,4.50
2022-09-09T05:54:16.467Z,4.27
2022-09-09T05:56:51.902Z,4.27
2022-09-09T05:59:20.469Z,5.23
2022-09-09T06:01:48.700Z,5.87
2022-09-09T06:04:25.935Z,4.77
2022-09-09T06:06:54.230Z,4.97
2022-09-09T06:09:23.902Z,4.83
2022-09-09T06:11:51.460Z,4.47
2022-09-09T06:14:20.416Z,4.53
2022-09-09T06:16:50.067Z,3.43
2022-09-09T06:19:25.466Z,3.72
2022-09-09T06:21:53.078Z,3.30
2022-09-09T06:24:21.066Z,4.10
2022-09-09T06:26:49.627Z,2.70
2022-09-09T06:29:22.022Z,3.10
2022-09-09T06:31:49.832Z,2.37
2022-09-09T06:34:21.986Z,2.97
2022-09-09T06:37:09.772Z,3.03
2022-09-09T06:39:42.570Z,2.35
2022-09-09T06:42:10.554Z,2.58
2022-09-09T06:45:04.332Z,3.17
2022-09-09T06:47:40.390Z,2.50
2022-09-09T06:50:09.347Z,2.10
2022-09-09T06:52:37.574Z,2.72
2022-09-09T06:55:25.038Z,2.05
2022-09-09T06:57:53.404Z,2.40
2022-09-09T07:00:25.074Z,1.80
2022-09-09T07:02:52.987Z,2.47
2022-09-09T07:05:20.614Z,2.20
2022-09-09T07:07:48.102Z,1.95
2022-09-09T07:10:18.755Z,2.30
2022-09-09T07:12:50.859Z,2.40
2022-09-09T07:15:19.699Z,2.15
2022-09-09T07:17:47.973Z,2.42
2022-09-09T07:20:16.807Z,2.70
2022-09-09T07:22:44.502Z,1.95
2022-09-09T07:25:12.502Z,2.75
2022-09-09T07:27:41.742Z,2.63
2022-09-09T07:30:13.733Z,2.10
2022-09-09T07:32:43.854Z,6.10
2022-09-09T07:35:11.491Z,2.95
2022-09-09T07:37:39.436Z,2.03
2022-09-09T07:40:07.798Z,2.05
2022-09-09T07:42:37.415Z,2.30
2022-09-09T07:45:06.659Z,1.55
2022-09-09T07:47:34.508Z,1.83
2022-09-09T07:50:02.894Z,2.95
2022-09-09T07:52:32.297Z,2.20
2022-09-09T07:55:05.573Z,3.53
2022-09-09T07:57:34.341Z,2.70
2022-09-09T08:00:23.795Z,2.40
2022-09-09T08:02:55.441Z,4.35
2022-09-09T08:05:23.925Z,2.70
2022-09-09T08:07:54.779Z,2.90
2022-09-09T08:10:22.597Z,2.60
2022-09-09T08:13:14.691Z,2.92
2022-09-09T08:15:42.159Z,2.63
2022-09-09T08:18:10.019Z,2.78
2022-09-09T08:20:38.981Z,2.30
2022-09-09T08:23:08.593Z,2.90
2022-09-09T08:25:36.484Z,3.60
2022-09-09T08:28:04.711Z,2.65
2022-09-09T08:30:32.387Z,3.47
2022-09-09T08:33:01.171Z,3.83
2022-09-09T08:35:33.616Z,3.63
2022-09-09T08:38:05.489Z,3.72
2022-09-09T08:40:50.498Z,3.58
2022-09-09T08:43:22.352Z,5.20
2022-09-09T08:46:07.544Z,3.22
2022-09-09T08:49:47.719Z,2.97
2022-09-09T08:52:25.783Z,3.33
2022-09-09T08:54:56.289Z,3.47
2022-09-09T08:57:45.439Z,12.07
2022-09-09T09:00:14.291Z,3.65
2022-09-09T09:02:59.659Z,22.45
2022-09-09T09:05:39.162Z,3.45
2022-09-09T09:08:44.509Z,3.72
2022-09-09T09:11:12.241Z,3.42
2022-09-09T09:14:02.042Z,3.05
2022-09-09T09:16:48.907Z,3.65
2022-09-09T09:19:19.100Z,3.67
2022-09-09T09:22:13.203Z,4.25
2022-09-09T09:24:55.356Z,3.33
2022-09-09T09:27:37.811Z,4.00
2022-09-09T09:30:29.893Z,10.35
2022-09-09T09:33:28.317Z,3.78
2022-09-09T09:35:57.030Z,3.40
2022-09-09T09:41:19.396Z,3.47
2022-09-09T09:43:55.768Z,3.90
2022-09-09T09:46:26.858Z,3.45
2022-09-09T09:49:11.424Z,3.78
2022-09-09T09:51:41.271Z,3.50
2022-09-09T09:54:14.620Z,3.40
2022-09-09T09:56:45.838Z,4.05
2022-09-09T09:59:40.724Z,4.22
2022-09-09T10:02:44.187Z,4.13
2022-09-09T10:05:26.584Z,3.20
2022-09-09T10:08:03.524Z,3.42
2022-09-09T10:11:07.123Z,3.30
2022-09-09T10:14:04.454Z,3.40
2022-09-09T10:17:12.353Z,3.35
2022-09-09T10:19:56.203Z,2.88
2022-09-09T10:22:35.353Z,2.60
2022-09-09T10:25:51.809Z,3.15
2022-09-09T10:28:49.268Z,2.72
2022-09-09T10:32:02.561Z,3.10
2022-09-09T10:34:57.823Z,3.70
2022-09-09T10:38:01.680Z,3.05
2022-09-09T10:40:56.545Z,6.97
2022-09-09T10:43:32.802Z,4.13
2022-09-09T10:46:23.167Z,2.95
2022-09-09T10:49:23.223Z,2.60
2022-09-09T10:52:12.011Z,2.92
2022-09-09T10:55:53.981Z,2.65
2022-09-09T10:58:50.060Z,2.65
2022-09-09T11:01:33.178Z,3.58
2022-09-09T11:04:23.375Z,3.00
2022-09-09T11:06:56.085Z,2.20
2022-09-09T11:09:29.658Z,2.70
2022-09-09T11:12:00.102Z,2.70
2022-09-09T11:14:44.709Z,2.80
2022-09-09T11:17:21.999Z,2.45
2022-09-09T11:19:49.501Z,2.40
2022-09-09T11:22:44.476Z,2.40
2022-09-09T11:25:14.735Z,2.47
2022-09-09T11:28:28.251Z,2.35
2022-09-09T11:34:50.496Z,3.22
2022-09-09T11:37:39.175Z,2.42
2022-09-09T11:40:18.766Z,3.95
2022-09-09T11:42:49.296Z,2.40
2022-09-09T11:45:29.733Z,2.72
2022-09-09T11:48:01.307Z,2.35
2022-09-09T11:50:37.750Z,2.70
2022-09-09T11:53:17.548Z,2.50
2022-09-09T11:55:45.244Z,2.22
2022-09-09T11:58:12.603Z,19.95
2022-09-09T12:00:45.411Z,2.70
2022-09-09T12:03:38.367Z,2.55
2022-09-09T12:06:33.474Z,2.85
2022-09-09T12:09:46.155Z,12.25
2022-09-09T12:12:13.502Z,2.70
2022-09-09T12:15:10.006Z,3.25
2022-09-09T12:17:50.348Z,3.35
2022-09-09T12:20:39.975Z,2.70
2022-09-09T12:23:34.381Z,3.60
2022-09-09T12:26:51.844Z,4.20
2022-09-09T12:29:41.045Z,3.67
2022-09-09T12:32:15.277Z,3.70
2022-09-09T12:34:53.460Z,3.00
2022-09-09T12:37:52.385Z,3.75
2022-09-09T12:40:33.412Z,2.90
2022-09-09T12:43:02.502Z,2.65
2022-09-09T12:45:37.021Z,3.35
2022-09-09T12:48:13.105Z,3.30
2022-09-09T12:50:48.915Z,3.22
2022-09-09T12:53:37.714Z,3.40
2022-09-09T12:56:09.908Z,3.03
2022-09-09T12:58:41.376Z,4.40
2022-09-09T13:01:24.653Z,3.72
2022-09-09T13:03:54.662Z,3.55
2022-09-09T13:06:29.465Z,5.35
2022-09-09T13:09:03.937Z,3.13
2022-09-09T13:11:43.179Z,3.50
2022-09-09T13:14:33.583Z,4.95
2022-09-09T13:17:04.492Z,3.70
2022-09-09T13:19:38.850Z,3.38
2022-09-09T13:22:28.538Z,3.47
2022-09-09T13:25:15.109Z,3.30
2022-09-09T13:28:03.528Z,3.80
2022-09-09T13:30:41.320Z,3.20
2022-09-09T13:33:15.531Z,3.05
2022-09-09T13:35:57.119Z,3.25
2022-09-09T13:38:27.717Z,3.90
2022-09-09T13:41:24.977Z,3.58
2022-09-09T13:43:56.214Z,4.30
2022-09-09T13:46:36.797Z,3.50
2022-09-09T13:49:13.188Z,2.95
2022-09-09T13:51:48.029Z,3.42
2022-09-09T13:54:18.998Z,3.05
2022-09-09T13:56:48.240Z,3.03
2022-09-09T13:59:22.429Z,3.97
2022-09-09T14:01:50.336Z,3.85
2022-09-09T14:04:17.941Z,3.55
2022-09-09T14:06:47.004Z,3.65
2022-09-09T14:09:17.897Z,3.83
2022-09-09T14:11:47.439Z,3.10
2022-09-09T14:14:15.080Z,2.97
2022-09-09T14:16:42.620Z,2.88
2022-09-09T14:19:11.263Z,3.03
2022-09-09T14:21:38.830Z,4.10
2022-09-09T14:24:07.230Z,3.70
2022-09-09T14:26:34.681Z,3.60
2022-09-09T14:29:02.800Z,3.17
2022-09-09T14:31:30.705Z,3.25
2022-09-09T14:33:58.237Z,4.15
2022-09-09T16:13:55.402Z,6.70
2022-09-09T16:16:26.997Z,6.07
2022-09-09T16:18:58.229Z,6.90
2022-09-09T16:21:33.055Z,6.05
2022-09-09T16:24:03.758Z,6.32
2022-09-09T16:26:34.129Z,5.50
2022-09-09T16:29:03.729Z,4.70
2022-09-09T16:31:36.971Z,3.72
2022-09-09T16:34:04.802Z,3.65
2022-09-09T16:36:36.538Z,3.55
2022-09-09T16:39:10.925Z,3.50
2022-09-09T16:41:40.258Z,3.63
2022-09-09T16:44:13.296Z,3.72
2022-09-09T16:46:44.567Z,4.53
2022-09-09T16:49:16.917Z,4.18
2022-09-09T16:51:54.374Z,4.40
2022-09-09T16:54:24.442Z,5.63
2022-09-09T16:56:52.173Z,4.97
2022-09-09T16:59:22.554Z,4.68
2022-09-09T17:01:52.316Z,84.60
2022-09-09T17:04:25.104Z,159.07
2022-09-09T17:06:55.764Z,110.75
2022-09-09T17:09:24.382Z,101.15
2022-09-09T17:11:53.431Z,47.72
2022-09-09T17:14:22.844Z,38.97
2022-09-09T17:16:50.960Z,40.17
2022-09-09T17:19:18.943Z,23.52
2022-09-09T17:22:17.862Z,17.65
2022-09-09T17:24:39.584Z,12.85
2022-09-09T17:27:07.553Z,14.38
2022-09-09T17:29:39.197Z,8.30
2022-09-09T17:32:08.488Z,7.68
2022-09-09T17:34:39.031Z,6.38
2022-09-09T17:37:09.181Z,5.72
2022-09-09T17:39:37.933Z,7.97
2022-09-09T17:42:06.122Z,8.00
2022-09-09T17:44:33.800Z,7.20
2022-09-09T17:47:01.804Z,7.90
2022-09-09T17:49:29.832Z,9.10
2022-09-09T17:51:58.920Z,9.43
2022-09-09T17:54:28.280Z,11.50
2022-09-09T17:56:55.820Z,14.55
2022-09-09T17:59:33.625Z,14.38
2022-09-09T18:02:02.058Z,13.52
2022-09-09T18:04:30.151Z,11.68
2022-09-09T18:06:59.921Z,9.35
2022-09-09T18:09:31.531Z,8.85
2022-09-09T18:12:01.766Z,8.45
2022-09-09T18:14:31.994Z,12.20
2022-09-09T18:17:23.634Z,16.42
2022-09-09T18:19:51.654Z,12.75
2022-09-09T18:22:20.928Z,17.05
2022-09-09T18:24:50.410Z,20.50
2022-09-09T18:27:17.963Z,20.45
2022-09-09T18:29:46.059Z,17.27
2022-09-09T18:32:15.116Z,16.02
2022-09-09T18:34:42.890Z,16.67
2022-09-09T18:37:13.588Z,13.65
2022-09-09T18:39:41.525Z,10.13
2022-09-09T18:42:09.383Z,7.22
2022-09-09T18:44:38.035Z,5.90
2022-09-09T18:47:05.876Z,6.78
2022-09-09T18:49:33.531Z,7.25
2022-09-09T18:52:02.621Z,7.43
2022-09-09T18:54:35.588Z,8.30
2022-09-09T18:57:03.363Z,8.10
2022-09-09T18:59:33.271Z,7.30
2022-09-09T19:02:04.268Z,6.07
2022-09-09T19:04:33.266Z,6.15
2022-09-09T19:07:01.018Z,6.07
2022-09-09T19:09:34.333Z,5.47
2022-09-09T19:12:04.008Z,6.05
2022-09-09T19:14:34.809Z,5.82
2022-09-09T19:17:11.283Z,6.47
2022-09-09T19:19:43.691Z,6.00
2022-09-09T19:22:11.889Z,6.50
2022-09-09T19:24:40.922Z,6.50
2022-09-09T19:27:11.457Z,5.93
2022-09-09T19:29:43.420Z,6.18
2022-09-09T19:32:51.763Z,6.28
2022-09-09T19:35:02.602Z,5.75
2022-09-09T19:37:31.825Z,5.93
2022-09-09T19:39:59.519Z,4.95
2022-09-09T19:42:27.227Z,4.88
2022-09-09T19:45:01.430Z,5.20
2022-09-09T19:47:29.066Z,5.22
2022-09-09T19:49:56.703Z,4.70
2022-09-09T19:52:26.751Z,4.68
2022-09-09T19:54:57.095Z,4.28
2022-09-09T19:57:24.917Z,3.78
2022-09-09T19:59:52.782Z,4.30
2022-09-09T20:02:20.362Z,4.03
2022-09-09T20:04:48.010Z,4.38
2022-09-09T20:07:15.923Z,4.38
2022-09-09T20:09:43.401Z,3.95
2022-09-09T20:12:10.883Z,4.10
2022-09-09T20:14:39.890Z,4.60
2022-09-09T20:17:08.246Z,4.57
2022-09-09T20:19:35.943Z,4.13
2022-09-09T20:22:05.000Z,4.03
2022-09-09T20:24:32.639Z,4.30
2022-09-09T20:27:00.079Z,4.45
2022-09-09T20:29:27.538Z,4.35
2022-09-09T20:31:55.236Z,4.50
2022-09-09T20:34:27.301Z,4.22
2022-09-09T20:36:59.330Z,4.10
2022-09-09T20:39:27.877Z,4.00
2022-09-09T20:41:55.477Z,7.22
2022-09-09T20:44:24.648Z,6.55
2022-09-09T20:47:00.464Z,7.55
2022-09-09T20:49:28.139Z,7.22
2022-09-09T20:51:55.851Z,6.18
2022-09-09T20:54:26.403Z,5.78
2022-09-09T20:56:55.514Z,6.05
2022-09-09T20:59:26.507Z,5.82
2022-09-09T21:01:55.515Z,5.82
2022-09-09T21:04:25.130Z,5.72
2022-09-09T21:06:53.477Z,6.22
2022-09-09T21:09:24.668Z,6.57
2022-09-09T21:11:54.954Z,5.40
2022-09-09T21:14:23.207Z,5.13
2022-09-09T21:16:50.907Z,5.78
2022-09-09T21:19:18.758Z,5.15
2022-09-09T21:21:47.917Z,5.15
2022-09-09T21:24:15.682Z,5.72
2022-09-09T21:26:43.344Z,6.20
2022-09-09T21:29:10.967Z,6.22
2022-09-09T21:31:38.506Z,5.15
2022-09-09T21:34:05.973Z,6.85
2022-09-09T21:36:33.797Z,6.63
2022-09-09T21:39:01.324Z,5.80
2022-09-09T21:41:28.891Z,6.50
2022-09-09T21:43:56.840Z,5.97
2022-09-09T21:46:26.634Z,5.55
2022-09-09T21:48:57.736Z,5.47
2022-09-09T21:51:26.115Z,5.53
2022-09-09T21:53:57.106Z,5.70
2022-09-09T21:56:26.823Z,5.70
2022-09-09T21:59:04.805Z,5.90
2022-09-09T22:01:34.218Z,6.10
2022-09-09T22:04:02.014Z,5.30
2022-09-09T22:06:29.511Z,5.82
2022-09-09T22:08:59.081Z,6.07
2022-09-09T22:11:26.565Z,5.50
2022-09-09T22:13:54.027Z,5.40
2022-09-09T22:16:23.971Z,6.10
2022-09-09T22:19:00.264Z,6.07
2022-09-09T22:21:31.147Z,6.60
2022-09-09T22:24:02.420Z,5.50
2022-09-09T22:26:33.512Z,5.20
2022-09-09T22:29:01.451Z,4.47
2022-09-09T22:31:29.592Z,3.80
2022-09-09T22:33:57.452Z,3.75
2022-09-09T22:36:26.155Z,3.92
2022-09-09T22:38:54.188Z,3.70
2022-09-09T22:41:22.284Z,3.50
2022-09-09T22:43:49.735Z,3.25
2022-09-09T22:46:18.920Z,2.97
2022-09-09T22:48:47.257Z,3.20
2022-09-09T22:51:16.124Z,3.50
2022-09-09T22:53:47.278Z,3.40
2022-09-09T22:56:18.617Z,3.53
2022-09-09T22:58:47.245Z,4.15
2022-09-09T23:01:21.019Z,4.18
2022-09-09T23:03:50.615Z,3.80
2022-09-09T23:06:24.032Z,3.90
2022-09-09T23:08:55.983Z,4.03
2022-09-09T23:11:30.447Z,4.57
2022-09-09T23:14:00.856Z,4.30
2022-09-09T23:16:39.825Z,4.20
2022-09-09T23:19:11.566Z,4.57
2022-09-09T23:21:40.998Z,4.43
2022-09-09T23:24:14.253Z,4.32
2022-09-09T23:26:45.573Z,4.60
2022-09-09T23:29:14.269Z,4.57
2022-09-09T23:31:46.703Z,4.70
2022-09-09T23:34:14.536Z,4.80
2022-09-09T23:36:42.353Z,5.72
2022-09-09T23:39:11.877Z,5.75
2022-09-09T23:41:40.376Z,5.90
2022-09-09T23:44:08.433Z,5.82
2022-09-09T23:46:36.790Z,7.28
2022-09-09T23:49:05.053Z,6.85
2022-09-09T23:51:33.978Z,7.30
2022-09-09T23:54:04.822Z,6.63
2022-09-09T23:56:37.766Z,5.85
2022-09-09T23:59:07.378Z,5.85
